West Barnstable, MA (02668)

8:26 PM EDT on July 04, 2015 (GMT -0400)
WEST BARNSTABLE | | Change Station
CLOSE
Current Station
Personal Weather Station
Location: West Barnstable, MA
Elevation: 90 ft
Nearby Weather Stations

Elev 90 ft 41.72 °N, 70.39 °W | Updated 20 seconds ago

Partly Cloudy
Partly Cloudy
61.7 °F
Feels Like 61.7 °F
N
0.0
Wind Variable Wind from NE
Gusts 2.0 mph

Today
High -- | Low -- °F
--% Chance of Precip.
Yesterday
High -- | Low -- °F
Precip. -- in
5:12 AM 8:19 PM
Waning Gibbous, 89% visible
Pressure 29.93 in
Visibility 10.0 miles
Clouds Few 9000 ft
Dew Point 56 °F
Humidity 82%
Rainfall 0.00 in
Snow Depth Not available.
UV 0 out of 12
Pollen 1.90 out of 12
Air Quality Not available.
Flu Activity Not available.
METAR KHYA 042356Z 04006KT 10SM FEW090 18/11 A2992 RMK AO2 SLP134 T01830111 10233 20183 55004

More Conditions Fewer Conditions

Pressure 29.93 in
Visibility 10.0 miles
Clouds Few 9000 ft
Dew Point 56 °F
Humidity 82%
Rainfall 0.00 in
Snow Depth Not available.
UV 0 out of 12
Pollen 1.90 out of 12
Air Quality Not available.
Flu Activity Not available.
METAR KHYA 042356Z 04006KT 10SM FEW090 18/11 A2992 RMK AO2 SLP134 T01830111 10233 20183 55004

More Conditions Fewer Conditions

10-Day Weather Forecast

×

Almanac

Astronomy

Jul. 04, 2015 Rise Set
Actual Time
Civil Twilight
Nautical Twilight
Astronomical Twilight
Moon
Length of Visible Light
Length of Day
Tomorrow will be .
, % of the Moon is Illuminated

Today's Extremes

State Highs State Lows

Community

WunderPhotos

Upload Photos

1,835,120 photos uploaded!

WunderBlogs® & News

Nearby

Air Quality

  Air Quality AQ Index Pollutant
Not available.

Snow Depth

Station Depth Elevation

Earthquake Activity

City Distance Mag. Time & Date
Minimum magnitude displayed is 2.5.

Coastal Water Temperatures

Place Temperature

Stations

Nearby Weather Stations

Station Location Temp. Windchill Dew Point Humidity Wind Precip. Elev Updated Type